Time;durP1;ratioP1;P1;durP2;ratioP2;P2;SDS_P1;SDS_P2;PMS_P1;PMS_P2;Temp;Humidity;BMP_temperature;BMP_pressure;BME280_temperature;BME280_humidity;BME280_pressure;Samples;Min_cycle;Max_cycle;Signal;HPM_P1;HPM_P2
2022/10/18 00:06:51;;;;;;;14.6;20.4;;;;;;;10.5;90.3;99860;;;;
2022/10/18 00:17:51;;;;;;;14.6;20.4;;;;;;;10.4;89.8;99860;;;;
2022/10/18 00:27:51;;;;;;;14.8;18.4;;;;;;;10.3;89.3;99860;;;;
2022/10/18 00:37:51;;;;;;;14.8;18.4;;;;;;;10;88.5;99850;;;;
2022/10/18 00:47:51;;;;;;;14.8;18.4;;;;;;;9.9;88.2;99850;;;;
2022/10/18 00:58:51;;;;;;;11.9;15;;;;;;;9.9;89.7;99840;;;;
2022/10/18 01:09:51;;;;;;;11.9;15;;;;;;;9.9;89.6;99840;;;;
2022/10/18 01:20:52;;;;;;;11.9;15;;;;;;;9.7;89.3;99840;;;;
2022/10/18 01:30:51;;;;;;;12.1;16.9;;;;;;;9.6;88.6;99850;;;;
2022/10/18 01:40:51;;;;;;;12.1;16.9;;;;;;;9.4;88.2;99840;;;;
2022/10/18 01:50:51;;;;;;;12.1;16.9;;;;;;;9.3;88.6;99840;;;;
2022/10/18 02:01:51;;;;;;;11.6;17;;;;;;;9.3;88.9;99840;;;;
2022/10/18 02:12:51;;;;;;;11.6;17;;;;;;;9.1;88.9;99840;;;;
2022/10/18 02:23:51;;;;;;;11.6;15.5;;;;;;;9;88.4;99840;;;;
2022/10/18 02:33:51;;;;;;;11.6;15.5;;;;;;;8.8;87.8;99850;;;;
2022/10/18 02:43:51;;;;;;;11.6;15.5;;;;;;;8.6;87.2;99840;;;;
2022/10/18 02:54:51;;;;;;;9.2;13.5;;;;;;;8.6;87.9;99840;;;;
2022/10/18 03:04:51;;;;;;;9.2;13.5;;;;;;;8.5;87.9;99840;;;;
2022/10/18 03:15:51;;;;;;;9.2;13.5;;;;;;;8.5;88.2;99840;;;;
2022/10/18 03:25:51;;;;;;;6.9;10.9;;;;;;;8.6;88.4;99840;;;;
2022/10/18 03:36:51;;;;;;;6.9;10.9;;;;;;;8.9;89.3;99830;;;;
2022/10/18 03:46:51;;;;;;;6.9;10.9;;;;;;;9;89.3;99830;;;;
2022/10/18 03:56:51;;;;;;;9;13.6;;;;;;;9;89.2;99840;;;;
2022/10/18 04:07:51;;;;;;;9;13.6;;;;;;;8.8;88.3;99830;;;;
2022/10/18 04:18:51;;;;;;;9;13.6;;;;;;;9.2;89;99820;;;;
2022/10/18 04:28:51;;;;;;;8.5;15.3;;;;;;;9.4;89.1;99820;;;;
2022/10/18 04:38:51;;;;;;;8.5;15.3;;;;;;;9.5;88.7;99820;;;;
2022/10/18 04:49:51;;;;;;;8.5;15.3;;;;;;;9.5;88.1;99820;;;;
2022/10/18 05:00:51;;;;;;;10.1;13.6;;;;;;;9.4;87.1;99830;;;;
2022/10/18 05:10:51;;;;;;;10.1;13.6;;;;;;;9.1;86;99830;;;;
2022/10/18 05:21:51;;;;;;;7;11.1;;;;;;;8.8;85.3;99850;;;;
2022/10/18 05:32:51;;;;;;;7;11.1;;;;;;;8.6;85.3;99850;;;;
2022/10/18 05:42:51;;;;;;;7;11.1;;;;;;;8.6;86;99850;;;;
2022/10/18 05:52:51;;;;;;;8.2;14;;;;;;;8.9;87;99850;;;;
2022/10/18 06:03:51;;;;;;;8.2;14;;;;;;;9.2;87.8;99860;;;;
2022/10/18 06:14:51;;;;;;;8.2;14;;;;;;;9.7;88.2;99860;;;;
2022/10/18 06:25:51;;;;;;;9.7;14.4;;;;;;;9.9;87.9;99860;;;;
2022/10/18 06:36:51;;;;;;;9.7;14.4;;;;;;;10.5;88.2;99860;;;;
2022/10/18 06:46:52;;;;;;;9.7;14.4;;;;;;;11;88.2;99860;;;;
2022/10/18 06:57:51;;;;;;;10.9;17.6;;;;;;;11.6;87.8;99860;;;;
2022/10/18 07:07:51;;;;;;;10.9;17.6;;;;;;;12.1;85.8;99860;;;;
2022/10/18 07:17:51;;;;;;;10.9;17.6;;;;;;;12.6;83.1;99850;;;;
2022/10/18 07:27:51;;;;;;;11.6;15.2;;;;;;;13.2;80.8;99860;;;;
2022/10/18 07:37:51;;;;;;;11.6;15.2;;;;;;;13.6;78.2;99850;;;;
2022/10/18 07:48:51;;;;;;;11.6;15.2;;;;;;;14.1;77.2;99840;;;;
2022/10/18 07:59:55;;;;;;;11.3;14.3;;;;;;;14.4;74.5;99830;;;;
2022/10/18 08:09:51;;;;;;;11.3;14.3;;;;;;;14.8;73.6;99830;;;;
2022/10/18 08:20:51;;;;;;;11.3;14.3;;;;;;;15.2;72.2;99810;;;;
2022/10/18 08:30:51;;;;;;;13.3;19.4;;;;;;;15.6;71.4;99810;;;;
2022/10/18 08:41:51;;;;;;;13.3;19.4;;;;;;;15.9;70.3;99790;;;;
2022/10/18 08:52:51;;;;;;;13.5;20.1;;;;;;;16.2;69.4;99780;;;;
2022/10/18 09:02:51;;;;;;;13.5;20.1;;;;;;;16.5;67.6;99780;;;;
2022/10/18 09:13:51;;;;;;;13.5;20.1;;;;;;;16.8;66.4;99770;;;;
2022/10/18 09:24:51;;;;;;;12;17.4;;;;;;;17.2;65.7;99750;;;;
2022/10/18 09:35:51;;;;;;;12;17.4;;;;;;;17.6;65.6;99720;;;;
2022/10/18 09:45:51;;;;;;;12;17.4;;;;;;;18;64.9;99710;;;;
2022/10/18 09:55:51;;;;;;;10;15.8;;;;;;;18.3;62.5;99700;;;;
2022/10/18 10:06:51;;;;;;;10;15.8;;;;;;;18.6;60.9;99680;;;;
2022/10/18 10:17:51;;;;;;;10;15.8;;;;;;;18.9;59.4;99670;;;;
2022/10/18 10:28:51;;;;;;;9.1;14.1;;;;;;;19.3;59.9;99660;;;;
2022/10/18 10:38:51;;;;;;;9.1;14.1;;;;;;;19.5;58.9;99640;;;;
2022/10/18 10:49:51;;;;;;;9.1;14.1;;;;;;;19.6;58.8;99620;;;;
2022/10/18 11:00:51;;;;;;;8.4;13.9;;;;;;;20;58.1;99600;;;;
2022/10/18 11:10:51;;;;;;;8.4;13.9;;;;;;;20.3;56.4;99580;;;;
2022/10/18 11:21:51;;;;;;;6.6;10.3;;;;;;;20.4;55.9;99560;;;;
2022/10/18 11:32:51;;;;;;;6.6;10.3;;;;;;;20.6;52.5;99540;;;;
2022/10/18 11:43:51;;;;;;;6.6;10.3;;;;;;;20.8;51.4;99530;;;;
2022/10/18 11:53:51;;;;;;;6.5;10.7;;;;;;;20.9;52.9;99520;;;;
2022/10/18 12:03:51;;;;;;;6.5;10.7;;;;;;;21;52;99520;;;;
2022/10/18 12:13:51;;;;;;;6.5;10.7;;;;;;;21;48.5;99500;;;;
2022/10/18 12:27:05;;;;;;;6.9;10.3;;;;;;;21.3;49.8;99480;;;;
2022/10/18 12:37:05;;;;;;;6.9;10.3;;;;;;;21.3;50.3;99470;;;;
2022/10/18 12:47:05;;;;;;;6.9;10.3;;;;;;;21.3;50.5;99450;;;;
2022/10/18 12:57:05;;;;;;;8.5;13;;;;;;;21.3;49.7;99440;;;;
2022/10/18 13:07:06;;;;;;;8.5;13;;;;;;;21.3;49.7;99430;;;;
2022/10/18 13:17:05;;;;;;;8.5;13;;;;;;;21.3;49.8;99410;;;;
2022/10/18 13:28:05;;;;;;;7.6;15.3;;;;;;;21.4;50.5;99400;;;;
2022/10/18 13:39:05;;;;;;;7.6;15.3;;;;;;;21.4;51.3;99380;;;;
2022/10/18 13:49:05;;;;;;;7.6;15.3;;;;;;;21.4;51.6;99360;;;;
2022/10/18 13:59:05;;;;;;;8;12.9;;;;;;;21.3;52.1;99350;;;;
2022/10/18 14:09:05;;;;;;;8;12.9;;;;;;;21.2;51.9;99340;;;;
2022/10/18 14:20:05;;;;;;;8;12.9;;;;;;;21;52.9;99340;;;;
2022/10/18 14:30:05;;;;;;;7.6;12.2;;;;;;;20.9;53.8;99330;;;;
2022/10/18 14:40:05;;;;;;;7.6;12.2;;;;;;;20.5;54.3;99330;;;;
2022/10/18 14:50:05;;;;;;;7.6;12.2;;;;;;;20;55.3;99320;;;;
2022/10/18 15:00:05;;;;;;;7.6;12.4;;;;;;;19.6;55.4;99310;;;;
2022/10/18 15:11:05;;;;;;;7.6;12.4;;;;;;;19.1;57.3;99310;;;;
2022/10/18 15:21:05;;;;;;;7.6;12.4;;;;;;;18.7;58.4;99300;;;;
2022/10/18 15:31:05;;;;;;;9.3;17.3;;;;;;;18.2;59.9;99310;;;;
2022/10/18 15:42:05;;;;;;;9.3;17.3;;;;;;;17.5;61.2;99300;;;;
2022/10/18 15:52:05;;;;;;;11.3;17.4;;;;;;;17.1;62.7;99290;;;;
2022/10/18 16:02:05;;;;;;;11.3;17.4;;;;;;;16.5;64;99300;;;;
2022/10/18 16:12:05;;;;;;;11.3;17.4;;;;;;;16.3;66.2;99300;;;;
2022/10/18 16:22:05;;;;;;;13.7;18.6;;;;;;;16.2;66.3;99300;;;;
2022/10/18 16:32:05;;;;;;;13.7;18.6;;;;;;;15.9;66.9;99310;;;;
2022/10/18 16:43:05;;;;;;;13.7;18.6;;;;;;;15.7;67.5;99320;;;;
2022/10/18 16:53:05;;;;;;;22.2;27.7;;;;;;;15.5;68.2;99310;;;;
2022/10/18 17:04:05;;;;;;;22.2;27.7;;;;;;;15.6;68.4;99310;;;;
2022/10/18 17:14:05;;;;;;;22.2;27.7;;;;;;;15.6;68.1;99330;;;;
2022/10/18 17:25:05;;;;;;;16.8;22.3;;;;;;;15.4;68.9;99330;;;;
2022/10/18 17:36:05;;;;;;;16.8;22.3;;;;;;;15.1;68.6;99330;;;;
2022/10/18 17:47:05;;;;;;;16.8;22.3;;;;;;;14.8;69.2;99350;;;;
2022/10/18 17:58:05;;;;;;;20.6;26.8;;;;;;;14.6;70.6;99350;;;;
2022/10/18 18:09:06;;;;;;;20.6;26.8;;;;;;;14.5;71.1;99350;;;;
2022/10/18 18:20:05;;;;;;;20.6;26.8;;;;;;;14.6;71.4;99360;;;;
2022/10/18 18:30:05;;;;;;;19.4;28;;;;;;;14.8;71.2;99360;;;;
2022/10/18 18:41:04;;;;;;;19.4;28;;;;;;;15;70.5;99360;;;;
2022/10/18 18:51:04;;;;;;;19.4;28;;;;;;;15.1;70.3;99360;;;;
2022/10/18 19:01:05;;;;;;;21.1;28.8;;;;;;;15.4;69.1;99360;;;;
2022/10/18 19:12:05;;;;;;;21.1;28.8;;;;;;;15.6;68.4;99360;;;;
2022/10/18 19:22:08;;;;;;;20.1;27.1;;;;;;;15.8;68;99370;;;;
2022/10/18 19:33:04;;;;;;;20.1;27.1;;;;;;;16.1;67.8;99370;;;;
2022/10/18 19:43:05;;;;;;;20.1;27.1;;;;;;;16.2;67.9;99370;;;;
2022/10/18 19:54:05;;;;;;;16;19.7;;;;;;;16.4;68.2;99380;;;;
2022/10/18 20:05:04;;;;;;;16;19.7;;;;;;;16.5;69;99380;;;;
2022/10/18 20:15:07;;;;;;;16;19.7;;;;;;;16.7;70.3;99390;;;;
2022/10/18 20:26:04;;;;;;;14.5;20.8;;;;;;;16.8;71.3;99400;;;;
2022/10/18 20:36:04;;;;;;;14.5;20.8;;;;;;;16.7;73.5;99420;;;;
2022/10/18 20:47:04;;;;;;;14.5;20.8;;;;;;;16.2;80.2;99440;;;;
2022/10/18 20:57:04;;;;;;;17.4;19.8;;;;;;;15.8;83.4;99460;;;;
2022/10/18 21:08:04;;;;;;;17.4;19.8;;;;;;;15.5;84.8;99510;;;;
2022/10/18 21:18:04;;;;;;;17.4;19.8;;;;;;;15.2;84.3;99520;;;;
2022/10/18 21:29:04;;;;;;;10.5;13.6;;;;;;;15;83.5;99510;;;;
2022/10/18 21:39:04;;;;;;;10.5;13.6;;;;;;;14.9;84;99520;;;;
2022/10/18 21:50:04;;;;;;;10.5;13.6;;;;;;;14.9;83.7;99530;;;;
2022/10/18 22:01:04;;;;;;;2.3;4.4;;;;;;;14.9;83.4;99530;;;;
2022/10/18 22:11:04;;;;;;;2.3;4.4;;;;;;;14.9;83.7;99520;;;;
2022/10/18 22:21:04;;;;;;;2.3;4.4;;;;;;;14.9;83.1;99510;;;;
2022/10/18 22:32:04;;;;;;;1.7;3.3;;;;;;;14.9;83.5;99510;;;;
2022/10/18 22:42:05;;;;;;;1.7;3.3;;;;;;;14.9;83.7;99510;;;;
2022/10/18 22:53:04;;;;;;;2.1;4.2;;;;;;;14.8;83.8;99510;;;;
2022/10/18 23:03:04;;;;;;;2.1;4.2;;;;;;;14.8;83.9;99510;;;;
2022/10/18 23:13:04;;;;;;;2.1;4.2;;;;;;;14.7;83.9;99520;;;;
2022/10/18 23:24:04;;;;;;;2.3;3.9;;;;;;;14.6;84.7;99510;;;;
2022/10/18 23:35:04;;;;;;;2.3;3.9;;;;;;;14.6;85.5;99520;;;;
2022/10/18 23:45:04;;;;;;;2.3;3.9;;;;;;;14.4;86.6;99530;;;;
2022/10/18 23:56:04;;;;;;;3.3;6.9;;;;;;;14.3;86.9;99530;;;;
